Climax, Kansas
Current Conditions -  °F | °C
As of 5:35 AM on Tuesday 21 Oct 2014 (Local Time) from KEQA Reporting Station
Clear Clear  
Wind Chill: 50°   Ceiling: Unl
Heat Index: 50°   Visibility: 10mi
Dew Point: 46°   Wind: 5mph
Humidity: 87%   Direction: 130°SE
Pressure: 30.09"   Gusts: NA
Location:  37.6825°N, 96.2141°W
Report Text: KEQA 211035Z AUTO 13004KT 10SM CLR 10/08 A3009 RMK AO2
Loading
Personal Weather Stations






























Interactive Weather Map
Tropical Storm Tracking
New forecast layout! Learn more

10-Day Weather Forecast

Advertisements
Track Severe Weather on mobile